Tiempo atmosférico en la estación meteorológica de Abanilla, Murcia (200 m.)



Fecha
DESCASC
Temp. máxima en grados centígrados (hora)
DESCASC
Temp. mínima en grados centígrados (hora)
DESCASC
Temp. media en grados centígrados
DESCASC
Racha de viento máxima en m/sg (hora)
DESCASC
Velocidad máxima media en intervalos de 10 minutos(hora)
DESCASC
Precipitaciones diarias en mm
DESCASC
Precipitaciones de 00:00 a 06:00 en mm
DESCASC
Precipitaciones de 06:00 a 12:00 en mm
DESCASC
Precipitaciones de 12:00 a 18:00 en mm
DESCASC
Precipitaciones de 18:00 a 24:00 en mm
DESCASC
20-09-2018 31.1 (16:40) 19.1 (07:50) 25.1 -- (--) -- (--) 0 0 0 0 0
19-09-2018 29.9 (15:50) 18.6 (07:10) 24.3 -- (--) -- (--) 0.2 0.2 0 0 0
18-09-2018 31 (15:40) 19.6 (08:10) 25.3 -- (--) -- (--) 9.4 0 0 0 9.4
17-09-2018 28.7 (14:20) 20.1 (08:40) 24.4 -- (--) -- (--) 0 0 0 0 0
16-09-2018 29.4 (15:00) 18.2 (00:00) 23.8 -- (--) -- (--) 0 0 0 0 0
15-09-2018 26.1 (19:00) 20.1 (00:00) 23.1 -- (--) -- (--) 10.6 1.4 5.8 3.4 0
14-09-2018 30.1 (15:20) 18.4 (00:00) 24.3 -- (--) -- (--) 0 0 0 0 0
13-09-2018 31.5 (15:30) 19.6 (00:00) 25.6 -- (--) -- (--) 0 0 0 0 0
12-09-2018 30.1 (16:00) 21.4 (00:00) 25.8 -- (--) -- (--) 0.2 0 0 0 0.2
11-09-2018 29 (17:30) 18.6 (00:00) 23.8 -- (--) -- (--) 0 0 0 0 0
10-09-2018 30 (15:20) 19.5 (00:00) 24.8 -- (--) -- (--) 0 0 0 0 0
09-09-2018 27.8 (13:40) 19.7 (00:00) 23.8 -- (--) -- (--) 0 0 0 0 0
08-09-2018 24.6 (18:10) 17.8 (00:00) 21.2 -- (--) -- (--) 14.2 0 11 3 0.2
07-09-2018 29 (16:10) 19.9 (00:00) 24.4 -- (--) -- (--) 13.8 0 13.8 0 0
06-09-2018 33.6 (15:40) 19.6 (00:00) 26.6 -- (--) -- (--) 0 0 0 0 0
05-09-2018 33.2 (15:30) 20.8 (00:00) 27 -- (--) -- (--) 0 0 0 0 0
04-09-2018 33.8 (16:10) 21.3 (00:00) 27.5 -- (--) -- (--) 0 0 0 0 0
03-09-2018 30.9 (16:10) 21.5 (00:00) 26.2 -- (--) -- (--) 1 1 0 0 0
02-09-2018 33.2 (16:10) 19.5 (00:00) 26.4 -- (--) -- (--) 0 0 0 0 0
01-09-2018 31.7 (15:40) 19.7 (00:00) 25.7 -- (--) -- (--) 0 0 0 0 0
31-08-2018 32.1 (15:20) 19.7 (00:00) 25.9 -- (--) -- (--) 0 0 0 0 0
30-08-2018 31.9 (15:10) 21.2 (00:00) 26.6 -- (--) -- (--) 0 0 0 0 0
29-08-2018 34.4 (16:40) 17 (00:00) 25.7 -- (--) -- (--) 0 0 0 0 0
28-08-2018 32.8 (16:40) 20.2 (00:00) 26.5 -- (--) -- (--) 0 0 0 0 0
27-08-2018 32.8 (15:00) 21.2 (00:00) 27 -- (--) -- (--) 0 0 0 0 0
26-08-2018 32.4 (14:30) 22.8 (00:00) 27.6 -- (--) -- (--) 0 0 0 0 0
25-08-2018 33.6 (15:00) 20.3 (00:00) 26.9 -- (--) -- (--) 0 0 0 0 0

Gráficas

Temp. máximas Temp. mínimas Temp. medias Precipitaciones Rachas de viento máximas Velocidades máximas media en intervalos de 10 minutos

Datos horarios

Fecha y hora oficial Temperatura (ºC) Velocidad del viento (km/h) Dirección del viento Racha (km/h) Dirección de racha Precipitación (mm) Presión (hPa) Tendencia (hPa) Humedad (%)